AWC14 LICJ-LMML
Flight info
| Callsign | AWC14 |
|---|---|
| Flight time | 0h 33m |
| Altitude | 19000 |
| Route | TRP M727 SENTI M732 ROBIM/N0409F250 M732 GZO |
| Aircraft | A320/M-SDE3FGHIRWY/LB1 |
Departure
| Time | 2026-04-27 19:05 |
|---|---|
| Airport | Falcone–Borsellino Airport (LICJ) |
Arrival
| Time | 2026-04-27 19:38 |
|---|---|
| Airport | Malta International Airport (LMML) |
| Time | Latitude | Longitude | Altitude | Speed | Heading |
|---|---|---|---|---|---|
| 2026-04-27 18:38 | 38.18432 | 13.10389 | 65 ft | 0 kts | 67° |
| 2026-04-27 18:52 | 38.18423 | 13.10363 | 58 ft | 4 kts | 67° |
| 2026-04-27 18:53 | 38.18408 | 13.10316 | 57 ft | 0 kts | 67° |
| 2026-04-27 18:58 | 38.18398 | 13.10321 | 60 ft | 4 kts | 171° |
| 2026-04-27 18:58 | 38.18335 | 13.10329 | 59 ft | 13 kts | 174° |
| 2026-04-27 18:59 | 38.18254 | 13.10269 | 65 ft | 16 kts | 245° |
| 2026-04-27 18:59 | 38.18207 | 13.10124 | 64 ft | 19 kts | 249° |
| 2026-04-27 18:59 | 38.18154 | 13.09952 | 64 ft | 22 kts | 248° |
| 2026-04-27 18:59 | 38.18067 | 13.09865 | 63 ft | 16 kts | 196° |
| 2026-04-27 19:00 | 38.18011 | 13.09757 | 62 ft | 16 kts | 248° |
| 2026-04-27 19:00 | 38.17958 | 13.09613 | 62 ft | 19 kts | 245° |
| 2026-04-27 19:00 | 38.17900 | 13.09447 | 62 ft | 22 kts | 246° |
| 2026-04-27 19:00 | 38.17843 | 13.09268 | 66 ft | 22 kts | 249° |
| 2026-04-27 19:01 | 38.17774 | 13.09075 | 67 ft | 27 kts | 246° |
| 2026-04-27 19:01 | 38.17698 | 13.08913 | 64 ft | 11 kts | 217° |
| 2026-04-27 19:01 | 38.17655 | 13.08875 | 67 ft | 0 kts | 214° |
| 2026-04-27 19:02 | 38.17646 | 13.08867 | 62 ft | 3 kts | 214° |
| 2026-04-27 19:02 | 38.17616 | 13.08839 | 63 ft | 8 kts | 216° |
| 2026-04-27 19:02 | 38.17562 | 13.08789 | 66 ft | 11 kts | 216° |
| 2026-04-27 19:03 | 38.17494 | 13.08763 | 67 ft | 10 kts | 136° |
| 2026-04-27 19:03 | 38.17501 | 13.08854 | 63 ft | 7 kts | 68° |
| 2026-04-27 19:03 | 38.17506 | 13.08873 | 65 ft | 2 kts | 69° |
| 2026-04-27 19:03 | 38.17511 | 13.08889 | 65 ft | 4 kts | 70° |
| 2026-04-27 19:04 | 38.17555 | 13.09035 | 72 ft | 47 kts | 68° |
| 2026-04-27 19:04 | 38.17792 | 13.09729 | 67 ft | 120 kts | 66° |
| 2026-04-27 19:04 | 38.18183 | 13.10928 | 67 ft | 172 kts | 65° |
| 2026-04-27 19:04 | 38.18698 | 13.12420 | 383 ft | 195 kts | 68° |
| 2026-04-27 19:05 | 38.19282 | 13.14094 | 718 ft | 221 kts | 67° |
| 2026-04-27 19:05 | 38.19957 | 13.16010 | 774 ft | 241 kts | 66° |
| 2026-04-27 19:05 | 38.20644 | 13.17938 | 623 ft | 238 kts | 66° |
| 2026-04-27 19:05 | 38.21324 | 13.19856 | 411 ft | 238 kts | 67° |
| 2026-04-27 19:06 | 38.21995 | 13.21759 | 822 ft | 234 kts | 67° |
| 2026-04-27 19:06 | 38.22655 | 13.23661 | 1838 ft | 237 kts | 66° |
| 2026-04-27 19:06 | 38.23613 | 13.25370 | 2839 ft | 243 kts | 39° |
| 2026-04-27 19:06 | 38.25152 | 13.26269 | 3813 ft | 249 kts | 9° |
| 2026-04-27 19:07 | 38.26890 | 13.26391 | 4820 ft | 253 kts | 352° |
| 2026-04-27 19:07 | 38.28532 | 13.25590 | 5775 ft | 257 kts | 322° |
| 2026-04-27 19:07 | 38.29671 | 13.23857 | 6753 ft | 259 kts | 294° |
| 2026-04-27 19:07 | 38.30015 | 13.21621 | 7707 ft | 262 kts | 266° |
| 2026-04-27 19:08 | 38.29695 | 13.19331 | 8698 ft | 264 kts | 257° |
| 2026-04-27 19:08 | 38.29222 | 13.17067 | 9651 ft | 267 kts | 251° |
| 2026-04-27 19:08 | 38.28451 | 13.14891 | 10523 ft | 271 kts | 246° |
| 2026-04-27 19:08 | 38.27682 | 13.12689 | 11384 ft | 273 kts | 249° |
| 2026-04-27 19:09 | 38.26998 | 13.10422 | 12244 ft | 276 kts | 251° |
| 2026-04-27 19:09 | 38.26326 | 13.08125 | 13107 ft | 278 kts | 251° |
| 2026-04-27 19:09 | 38.25626 | 13.05790 | 13734 ft | 292 kts | 250° |
| 2026-04-27 19:09 | 38.24848 | 13.03292 | 13986 ft | 315 kts | 249° |
| 2026-04-27 19:10 | 38.23985 | 13.00618 | 14163 ft | 339 kts | 249° |
| 2026-04-27 19:10 | 38.22840 | 12.97924 | 14573 ft | 354 kts | 233° |
| 2026-04-27 19:10 | 38.21149 | 12.95612 | 15210 ft | 361 kts | 221° |
| 2026-04-27 19:10 | 38.19768 | 12.94424 | 15632 ft | 366 kts | 209° |
| 2026-04-27 19:11 | 38.16455 | 12.93322 | 16528 ft | 376 kts | 184° |
| 2026-04-27 19:11 | 38.13827 | 12.93313 | 17228 ft | 379 kts | 178° |
| 2026-04-27 19:11 | 38.11223 | 12.93968 | 17866 ft | 385 kts | 165° |
| 2026-04-27 19:11 | 38.08652 | 12.94920 | 18164 ft | 385 kts | 165° |
| 2026-04-27 19:12 | 38.06082 | 12.95897 | 18428 ft | 386 kts | 165° |
| 2026-04-27 19:12 | 38.03503 | 12.96885 | 18659 ft | 387 kts | 165° |
| 2026-04-27 19:12 | 38.00919 | 12.97876 | 18885 ft | 389 kts | 165° |
| 2026-04-27 19:12 | 37.98321 | 12.98872 | 19064 ft | 391 kts | 165° |
| 2026-04-27 19:13 | 37.97435 | 12.99210 | 19090 ft | 394 kts | 165° |
| 2026-04-27 19:13 | 37.93833 | 13.00569 | 19103 ft | 414 kts | 165° |
| 2026-04-27 19:13 | 37.91995 | 13.01262 | 19119 ft | 417 kts | 165° |
| 2026-04-27 19:14 | 37.89207 | 13.02318 | 19118 ft | 419 kts | 165° |
| 2026-04-27 19:14 | 37.86409 | 13.03380 | 19116 ft | 419 kts | 165° |
| 2026-04-27 19:14 | 37.83611 | 13.04440 | 19119 ft | 419 kts | 165° |
| 2026-04-27 19:14 | 37.80813 | 13.05494 | 19120 ft | 419 kts | 165° |
| 2026-04-27 19:15 | 37.78017 | 13.06546 | 19120 ft | 420 kts | 165° |
| 2026-04-27 19:15 | 37.75218 | 13.07603 | 19120 ft | 420 kts | 165° |
| 2026-04-27 19:15 | 37.72416 | 13.08663 | 19119 ft | 420 kts | 165° |
| 2026-04-27 19:15 | 37.69614 | 13.09722 | 19122 ft | 421 kts | 165° |
| 2026-04-27 19:16 | 37.66807 | 13.10777 | 19123 ft | 421 kts | 165° |
| 2026-04-27 19:16 | 37.64910 | 13.11489 | 19121 ft | 421 kts | 165° |
| 2026-04-27 19:16 | 37.61195 | 13.12883 | 19121 ft | 421 kts | 165° |
| 2026-04-27 19:16 | 37.58388 | 13.13935 | 19117 ft | 421 kts | 165° |
| 2026-04-27 19:17 | 37.55575 | 13.14990 | 19116 ft | 421 kts | 165° |
| 2026-04-27 19:17 | 37.52768 | 13.16044 | 19116 ft | 421 kts | 165° |
| 2026-04-27 19:17 | 37.49963 | 13.17095 | 19118 ft | 421 kts | 166° |
| 2026-04-27 19:17 | 37.47150 | 13.18145 | 19115 ft | 421 kts | 166° |
| 2026-04-27 19:18 | 37.44341 | 13.19195 | 19115 ft | 421 kts | 166° |
| 2026-04-27 19:18 | 37.41491 | 13.20260 | 19114 ft | 422 kts | 166° |
| 2026-04-27 19:18 | 37.38713 | 13.21296 | 19113 ft | 422 kts | 166° |
| 2026-04-27 19:18 | 37.35896 | 13.22345 | 19108 ft | 422 kts | 166° |
| 2026-04-27 19:19 | 37.33078 | 13.23389 | 19106 ft | 422 kts | 166° |
| 2026-04-27 19:19 | 37.30223 | 13.24444 | 19110 ft | 423 kts | 166° |
| 2026-04-27 19:19 | 37.27402 | 13.25490 | 19111 ft | 423 kts | 166° |
| 2026-04-27 19:19 | 37.24588 | 13.26540 | 19106 ft | 423 kts | 166° |
| 2026-04-27 19:20 | 37.21803 | 13.27579 | 19106 ft | 423 kts | 166° |
| 2026-04-27 19:20 | 37.18943 | 13.28644 | 19103 ft | 424 kts | 167° |
| 2026-04-27 19:20 | 37.16117 | 13.29694 | 19102 ft | 424 kts | 167° |
| 2026-04-27 19:20 | 37.13285 | 13.30745 | 19100 ft | 424 kts | 167° |
| 2026-04-27 19:21 | 37.10487 | 13.31783 | 19105 ft | 425 kts | 167° |
| 2026-04-27 19:21 | 37.07645 | 13.32831 | 19099 ft | 425 kts | 167° |
| 2026-04-27 19:21 | 37.04774 | 13.33885 | 19106 ft | 425 kts | 167° |
| 2026-04-27 19:21 | 37.01968 | 13.34915 | 19101 ft | 425 kts | 167° |
| 2026-04-27 19:22 | 36.99131 | 13.35960 | 19105 ft | 425 kts | 167° |
| 2026-04-27 19:22 | 36.96289 | 13.37007 | 19103 ft | 426 kts | 167° |
| 2026-04-27 19:22 | 36.93449 | 13.38056 | 19102 ft | 426 kts | 167° |
| 2026-04-27 19:22 | 36.90611 | 13.39105 | 19105 ft | 426 kts | 167° |
| 2026-04-27 19:23 | 36.87764 | 13.40154 | 19106 ft | 426 kts | 167° |
| 2026-04-27 19:23 | 36.84928 | 13.41198 | 19109 ft | 426 kts | 167° |
| 2026-04-27 19:23 | 36.82084 | 13.42244 | 19111 ft | 426 kts | 167° |
| 2026-04-27 19:23 | 36.79241 | 13.43291 | 19110 ft | 426 kts | 167° |
| 2026-04-27 19:24 | 36.76396 | 13.44335 | 19110 ft | 426 kts | 167° |
| 2026-04-27 19:24 | 36.73554 | 13.45375 | 19113 ft | 426 kts | 167° |
| 2026-04-27 19:24 | 36.70710 | 13.46416 | 19111 ft | 426 kts | 167° |
| 2026-04-27 19:24 | 36.67867 | 13.47454 | 19109 ft | 426 kts | 167° |
| 2026-04-27 19:25 | 36.65029 | 13.48490 | 19111 ft | 426 kts | 167° |
| 2026-04-27 19:25 | 36.62147 | 13.49541 | 19111 ft | 426 kts | 167° |
| 2026-04-27 19:25 | 36.59342 | 13.50561 | 19112 ft | 425 kts | 167° |
| 2026-04-27 19:25 | 36.56520 | 13.51587 | 18971 ft | 417 kts | 167° |
| 2026-04-27 19:26 | 36.53951 | 13.52549 | 18753 ft | 406 kts | 164° |
| 2026-04-27 19:26 | 36.51356 | 13.53976 | 18519 ft | 401 kts | 154° |
| 2026-04-27 19:26 | 36.49067 | 13.55873 | 18271 ft | 402 kts | 143° |
| 2026-04-27 19:26 | 36.47043 | 13.58265 | 18005 ft | 403 kts | 133° |
| 2026-04-27 19:27 | 36.45225 | 13.60909 | 17739 ft | 402 kts | 132° |
| 2026-04-27 19:27 | 36.43421 | 13.63531 | 17233 ft | 397 kts | 132° |
| 2026-04-27 19:27 | 36.41632 | 13.66122 | 16655 ft | 394 kts | 132° |
| 2026-04-27 19:27 | 36.39853 | 13.68693 | 16061 ft | 391 kts | 132° |
| 2026-04-27 19:28 | 36.38060 | 13.71282 | 15477 ft | 389 kts | 132° |
| 2026-04-27 19:28 | 36.36321 | 13.73791 | 14894 ft | 388 kts | 132° |
| 2026-04-27 19:28 | 36.34544 | 13.76352 | 14297 ft | 386 kts | 132° |
| 2026-04-27 19:28 | 36.32799 | 13.78869 | 13685 ft | 385 kts | 132° |
| 2026-04-27 19:29 | 36.31061 | 13.81375 | 13076 ft | 382 kts | 132° |
| 2026-04-27 19:29 | 36.29330 | 13.83862 | 12493 ft | 378 kts | 132° |
| 2026-04-27 19:29 | 36.27621 | 13.86317 | 11898 ft | 375 kts | 132° |
| 2026-04-27 19:29 | 36.25927 | 13.88751 | 11325 ft | 372 kts | 132° |
| 2026-04-27 19:30 | 36.24241 | 13.91171 | 10748 ft | 370 kts | 132° |
| 2026-04-27 19:30 | 36.22589 | 13.93546 | 10552 ft | 356 kts | 132° |
| 2026-04-27 19:30 | 36.21012 | 13.95820 | 10430 ft | 341 kts | 132° |
| 2026-04-27 19:30 | 36.19497 | 13.98005 | 10308 ft | 328 kts | 132° |
| 2026-04-27 19:31 | 36.18036 | 14.00106 | 10188 ft | 317 kts | 132° |
| 2026-04-27 19:31 | 36.16608 | 14.02151 | 9953 ft | 311 kts | 132° |
| 2026-04-27 19:31 | 36.15198 | 14.04165 | 9573 ft | 309 kts | 132° |
| 2026-04-27 19:31 | 36.13796 | 14.06165 | 9201 ft | 308 kts | 132° |
| 2026-04-27 19:32 | 36.12391 | 14.08166 | 8845 ft | 306 kts | 132° |
| 2026-04-27 19:32 | 36.11001 | 14.10148 | 8496 ft | 304 kts | 132° |
| 2026-04-27 19:32 | 36.09624 | 14.12116 | 8148 ft | 302 kts | 131° |
| 2026-04-27 19:32 | 36.08248 | 14.14079 | 7801 ft | 301 kts | 131° |
| 2026-04-27 19:33 | 36.06858 | 14.16058 | 7084 ft | 311 kts | 131° |
| 2026-04-27 19:33 | 36.05907 | 14.17413 | 6567 ft | 320 kts | 131° |
| 2026-04-27 19:33 | 36.03960 | 14.20308 | 5412 ft | 335 kts | 123° |
| 2026-04-27 19:33 | 36.03027 | 14.22943 | 4952 ft | 331 kts | 109° |
| 2026-04-27 19:34 | 36.02265 | 14.25563 | 4809 ft | 317 kts | 109° |
| 2026-04-27 19:34 | 36.01469 | 14.28044 | 4651 ft | 304 kts | 118° |
| 2026-04-27 19:34 | 36.00191 | 14.30070 | 4281 ft | 300 kts | 136° |
| 2026-04-27 19:34 | 35.98646 | 14.31794 | 3855 ft | 298 kts | 138° |
| 2026-04-27 19:35 | 35.97148 | 14.33550 | 3456 ft | 296 kts | 135° |
| 2026-04-27 19:35 | 35.95715 | 14.35348 | 3194 ft | 287 kts | 134° |
| 2026-04-27 19:35 | 35.94342 | 14.37071 | 3052 ft | 276 kts | 134° |
| 2026-04-27 19:35 | 35.93023 | 14.38713 | 2995 ft | 261 kts | 134° |
| 2026-04-27 19:36 | 35.91788 | 14.40248 | 2693 ft | 243 kts | 134° |
| 2026-04-27 19:36 | 35.90623 | 14.41696 | 2221 ft | 234 kts | 134° |
| 2026-04-27 19:36 | 35.89499 | 14.43092 | 1747 ft | 225 kts | 134° |
| 2026-04-27 19:36 | 35.88415 | 14.44438 | 1212 ft | 219 kts | 135° |
| 2026-04-27 19:37 | 35.87345 | 14.45765 | 658 ft | 215 kts | 135° |
| 2026-04-27 19:37 | 35.86353 | 14.46987 | 489 ft | 189 kts | 134° |
| 2026-04-27 19:37 | 35.85518 | 14.48047 | 281 ft | 152 kts | 135° |
| 2026-04-27 19:37 | 35.84892 | 14.48803 | 259 ft | 101 kts | 135° |
| 2026-04-27 19:38 | 35.84526 | 14.49270 | 259 ft | 42 kts | 125° |
| 2026-04-27 19:38 | 35.84454 | 14.49519 | 259 ft | 15 kts | 66° |
| 2026-04-27 19:38 | 35.84522 | 14.49560 | 259 ft | 0 kts | 346° |
| 2026-04-27 19:39 | 35.84534 | 14.49552 | 259 ft | 4 kts | 329° |
| 2026-04-27 19:39 | 35.84567 | 14.49534 | 259 ft | 7 kts | 349° |
| 2026-04-27 19:39 | 35.84619 | 14.49558 | 259 ft | 10 kts | 22° |
| 2026-04-27 19:40 | 35.84693 | 14.49556 | 259 ft | 13 kts | 332° |
| 2026-04-27 19:40 | 35.84721 | 14.49529 | 259 ft | 0 kts | 320° |
| 2026-04-27 19:40 | 35.84726 | 14.49525 | 259 ft | 2 kts | 324° |
| 2026-04-27 19:41 | 35.84752 | 14.49515 | 259 ft | 5 kts | 351° |
| 2026-04-27 19:41 | 35.84799 | 14.49514 | 259 ft | 7 kts | 0° |
| 2026-04-27 19:41 | 35.84809 | 14.49514 | 259 ft | 0 kts | 360° |